createdAt,value
2022-12-23T00:00:40.566Z,3.59
2022-12-23T00:03:07.972Z,3.94
2022-12-23T00:05:38.222Z,3.97
2022-12-23T00:08:06.917Z,3.88
2022-12-23T00:10:38.435Z,3.86
2022-12-23T00:13:24.337Z,3.98
2022-12-23T00:15:51.608Z,3.99
2022-12-23T00:18:18.904Z,4.14
2022-12-23T00:20:46.115Z,4.11
2022-12-23T00:23:13.359Z,3.98
2022-12-23T00:25:44.839Z,4.09
2022-12-23T00:28:18.038Z,4.28
2022-12-23T00:30:55.787Z,4.48
2022-12-23T00:33:26.387Z,4.27
2022-12-23T00:35:54.077Z,4.40
2022-12-23T00:38:42.310Z,4.65
2022-12-23T00:41:36.552Z,4.40
2022-12-23T00:44:04.846Z,4.13
2022-12-23T00:46:32.664Z,4.16
2022-12-23T00:49:18.676Z,3.92
2022-12-23T00:51:46.018Z,4.53
2022-12-23T00:54:13.232Z,4.24
2022-12-23T00:56:40.539Z,4.09
2022-12-23T00:59:07.852Z,3.94
2022-12-23T01:01:54.092Z,3.81
2022-12-23T01:04:40.407Z,3.81
2022-12-23T01:07:07.760Z,3.80
2022-12-23T01:09:35.038Z,3.71
2022-12-23T01:12:02.351Z,3.73
2022-12-23T01:14:30.162Z,4.03
2022-12-23T01:16:57.423Z,3.82
2022-12-23T01:19:25.060Z,3.77
2022-12-23T01:21:52.311Z,3.63
2022-12-23T01:24:19.497Z,3.85
2022-12-23T01:26:46.851Z,3.71
2022-12-23T01:29:14.256Z,3.72
2022-12-23T01:31:41.501Z,3.90
2022-12-23T01:34:08.835Z,4.05
2022-12-23T01:36:36.570Z,3.95
2022-12-23T01:39:03.864Z,3.52
2022-12-23T01:41:51.744Z,3.73
2022-12-23T01:44:57.491Z,3.74
2022-12-23T01:47:49.315Z,3.74
2022-12-23T01:50:22.635Z,3.70
2022-12-23T01:52:55.904Z,3.89
2022-12-23T01:55:26.149Z,3.77
2022-12-23T01:57:57.800Z,3.69
2022-12-23T02:00:43.658Z,3.57
2022-12-23T02:03:29.589Z,3.67
2022-12-23T02:06:18.120Z,3.75
2022-12-23T02:09:04.134Z,3.78
2022-12-23T02:12:00.600Z,3.77
2022-12-23T02:14:58.993Z,3.73
2022-12-23T02:17:42.744Z,3.84
2022-12-23T02:20:45.653Z,3.78
2022-12-23T02:23:26.481Z,3.68
2022-12-23T02:26:19.357Z,3.70
2022-12-23T02:29:20.688Z,3.66
2022-12-23T02:32:18.800Z,3.59
2022-12-23T02:35:04.839Z,3.58
2022-12-23T02:37:40.947Z,3.58
2022-12-23T02:40:14.999Z,3.54
2022-12-23T02:42:46.930Z,3.54
2022-12-23T02:45:26.360Z,3.55
2022-12-23T02:48:06.540Z,3.92
2022-12-23T02:50:38.150Z,3.93
2022-12-23T02:53:15.391Z,3.59
2022-12-23T02:55:46.529Z,3.49
2022-12-23T02:58:18.117Z,3.71
2022-12-23T03:00:46.693Z,3.98
2022-12-23T03:03:17.395Z,3.73
2022-12-23T03:05:47.734Z,3.77
2022-12-23T03:08:20.972Z,3.48
2022-12-23T03:11:02.523Z,3.59
2022-12-23T03:13:54.303Z,3.60
2022-12-23T03:16:45.580Z,3.64
2022-12-23T03:19:22.077Z,3.55
2022-12-23T03:22:24.415Z,3.37
2022-12-23T03:25:19.269Z,3.39
2022-12-23T03:27:49.418Z,3.35
2022-12-23T03:30:18.753Z,3.27
2022-12-23T03:32:52.031Z,3.16
2022-12-23T03:35:24.290Z,3.30
2022-12-23T03:37:54.699Z,3.27
2022-12-23T03:40:31.178Z,3.21
2022-12-23T03:43:04.475Z,3.21
2022-12-23T03:45:45.379Z,3.08
2022-12-23T03:48:23.191Z,3.07
2022-12-23T03:50:56.411Z,3.09
2022-12-23T03:53:35.038Z,2.96
2022-12-23T03:56:07.080Z,3.06
2022-12-23T03:58:47.518Z,2.91
2022-12-23T04:01:33.052Z,2.99
2022-12-23T04:04:16.255Z,2.87
2022-12-23T04:06:59.345Z,2.99
2022-12-23T04:09:28.606Z,3.23
2022-12-23T04:11:57.758Z,3.12
2022-12-23T04:14:25.028Z,2.91
2022-12-23T04:16:55.985Z,2.91
2022-12-23T04:19:23.180Z,3.08
2022-12-23T04:21:50.487Z,3.03
2022-12-23T04:24:17.774Z,2.73
2022-12-23T04:26:45.107Z,2.84
2022-12-23T04:29:12.607Z,2.87
2022-12-23T04:31:39.991Z,2.95
2022-12-23T04:34:07.269Z,2.92
2022-12-23T04:36:34.523Z,2.83
2022-12-23T04:39:01.861Z,2.77
2022-12-23T04:41:29.079Z,2.88
2022-12-23T04:43:56.465Z,2.76
2022-12-23T04:46:23.698Z,2.66
2022-12-23T04:48:51.015Z,3.03
2022-12-23T04:51:18.342Z,3.04
2022-12-23T04:53:45.582Z,3.04
2022-12-23T04:56:13.614Z,3.04
2022-12-23T04:58:41.035Z,3.08
2022-12-23T05:01:12.246Z,2.99
2022-12-23T05:03:40.721Z,3.00
2022-12-23T05:06:08.483Z,3.14
2022-12-23T05:08:35.775Z,3.14
2022-12-23T05:11:03.073Z,3.03
2022-12-23T05:13:30.417Z,3.16
2022-12-23T05:15:57.708Z,2.86
2022-12-23T05:18:25.131Z,3.10
2022-12-23T05:20:52.388Z,2.94
2022-12-23T05:23:19.629Z,3.14
2022-12-23T05:25:52.816Z,3.00
2022-12-23T05:28:21.515Z,3.22
2022-12-23T05:30:48.969Z,3.02
2022-12-23T05:33:16.325Z,2.84
2022-12-23T05:35:43.542Z,2.97
2022-12-23T05:38:10.759Z,3.11
2022-12-23T05:40:38.025Z,2.80
2022-12-23T05:43:05.445Z,3.25
2022-12-23T05:45:35.852Z,3.09
2022-12-23T05:48:03.277Z,3.00
2022-12-23T05:50:30.728Z,2.97
2022-12-23T05:53:02.060Z,2.98
2022-12-23T05:55:29.407Z,2.90
2022-12-23T05:57:56.699Z,2.92
2022-12-23T06:00:24.159Z,2.81
2022-12-23T06:02:53.872Z,2.80
2022-12-23T06:05:21.880Z,2.82
2022-12-23T06:07:49.259Z,2.81
2022-12-23T06:10:16.760Z,2.77
2022-12-23T06:12:44.164Z,2.84
2022-12-23T06:15:12.575Z,2.84
2022-12-23T06:17:39.817Z,2.53
2022-12-23T06:20:12.137Z,2.78
2022-12-23T06:22:43.479Z,2.75
2022-12-23T06:25:10.825Z,2.49
2022-12-23T06:27:38.059Z,2.79
2022-12-23T06:30:05.788Z,2.63
2022-12-23T06:32:38.209Z,3.03
2022-12-23T06:35:07.539Z,3.05
2022-12-23T06:37:35.107Z,2.89
2022-12-23T06:40:02.453Z,2.68
2022-12-23T06:42:29.860Z,2.65
2022-12-23T06:44:57.155Z,2.87
2022-12-23T06:47:24.388Z,3.05
2022-12-23T06:49:51.743Z,3.00
2022-12-23T06:52:19.038Z,2.97
2022-12-23T06:54:46.335Z,3.02
2022-12-23T06:57:13.618Z,2.96
2022-12-23T06:59:40.894Z,3.05
2022-12-23T07:02:13.022Z,3.03
2022-12-23T07:04:40.382Z,3.06
2022-12-23T07:07:07.636Z,3.02
2022-12-23T07:09:34.849Z,2.94
2022-12-23T07:12:03.689Z,2.99
2022-12-23T07:14:31.001Z,2.87
2022-12-23T07:16:58.362Z,3.01
2022-12-23T07:19:25.734Z,2.87
2022-12-23T07:21:52.939Z,2.84
2022-12-23T07:24:20.259Z,2.95
2022-12-23T07:26:47.591Z,2.94
2022-12-23T07:29:14.881Z,3.01
2022-12-23T07:31:42.247Z,2.84
2022-12-23T07:34:10.123Z,2.92
2022-12-23T07:36:37.393Z,2.84
2022-12-23T07:39:04.752Z,2.81
2022-12-23T07:41:31.919Z,2.72
2022-12-23T07:44:07.667Z,2.70
2022-12-23T07:46:35.036Z,2.69
2022-12-23T07:49:02.406Z,2.68
2022-12-23T07:51:29.795Z,2.54
2022-12-23T07:53:57.160Z,2.64
2022-12-23T07:56:24.658Z,2.61
2022-12-23T07:58:53.424Z,2.67
2022-12-23T08:01:21.154Z,2.68
2022-12-23T08:03:48.701Z,2.67
2022-12-23T08:06:17.038Z,2.68
2022-12-23T08:08:46.118Z,2.67
2022-12-23T08:11:15.004Z,2.61
2022-12-23T08:13:44.367Z,2.62
2022-12-23T08:16:12.611Z,2.82
2022-12-23T08:18:41.816Z,2.92
2022-12-23T08:21:19.940Z,2.95
2022-12-23T08:23:47.787Z,2.95
2022-12-23T08:26:18.251Z,3.16
2022-12-23T08:28:46.111Z,2.85
2022-12-23T08:31:24.740Z,2.83
2022-12-23T08:33:55.654Z,3.14
2022-12-23T08:36:26.059Z,3.38
2022-12-23T08:38:55.273Z,3.12
2022-12-23T08:41:26.629Z,3.29
2022-12-23T08:43:54.323Z,3.34
2022-12-23T08:46:22.146Z,3.27
2022-12-23T08:48:50.149Z,3.30
2022-12-23T08:51:19.982Z,3.48
2022-12-23T08:53:48.178Z,3.38
2022-12-23T08:56:21.604Z,3.20
2022-12-23T08:58:51.275Z,3.24
2022-12-23T09:01:20.787Z,3.34
2022-12-23T09:03:48.235Z,3.53
2022-12-23T09:06:24.767Z,3.75
2022-12-23T09:08:56.646Z,3.67
2022-12-23T09:11:26.703Z,3.61
2022-12-23T09:13:54.725Z,3.81
2022-12-23T09:16:22.757Z,3.97
2022-12-23T09:18:50.093Z,3.89
2022-12-23T09:21:22.355Z,4.06
2022-12-23T09:23:50.418Z,4.19
2022-12-23T09:26:26.584Z,4.20
2022-12-23T09:28:54.567Z,4.21
2022-12-23T09:31:22.650Z,4.34
2022-12-23T09:33:51.821Z,4.32
2022-12-23T09:36:20.272Z,4.55
2022-12-23T09:38:47.529Z,4.47
2022-12-23T09:41:39.027Z,4.54
2022-12-23T09:44:45.284Z,4.64
2022-12-23T09:47:17.946Z,4.71
2022-12-23T09:49:59.835Z,4.85
2022-12-23T09:53:04.273Z,5.00
2022-12-23T09:55:57.633Z,5.25
2022-12-23T09:58:43.753Z,5.92
2022-12-23T10:01:55.722Z,5.47
2022-12-23T10:18:42.350Z,5.19
2022-12-23T10:21:29.966Z,5.07
2022-12-23T10:24:02.321Z,4.90
2022-12-23T10:26:34.592Z,4.97
2022-12-23T10:29:19.269Z,5.14
2022-12-23T10:31:49.974Z,5.16
2022-12-23T10:34:36.585Z,5.15
2022-12-23T10:37:21.861Z,5.18
2022-12-23T10:40:17.182Z,5.19
2022-12-23T10:43:20.955Z,5.46
2022-12-23T10:46:07.090Z,5.18
2022-12-23T10:48:43.598Z,5.25
2022-12-23T10:51:28.796Z,5.32
2022-12-23T10:54:14.796Z,5.36
2022-12-23T10:56:43.199Z,5.78
2022-12-23T10:59:15.338Z,5.63
2022-12-23T11:01:49.224Z,5.75
2022-12-23T11:04:19.482Z,5.67
2022-12-23T11:07:10.532Z,5.72
2022-12-23T11:09:41.870Z,5.60
2022-12-23T11:12:11.780Z,5.71
2022-12-23T11:14:57.912Z,5.99
2022-12-23T11:17:30.690Z,6.18
2022-12-23T11:20:10.639Z,6.12
2022-12-23T11:23:00.039Z,6.22
2022-12-23T11:25:42.587Z,6.20
2022-12-23T11:28:19.610Z,6.34
2022-12-23T11:30:57.023Z,6.36
2022-12-23T11:33:34.023Z,6.29
2022-12-23T11:36:17.533Z,6.36
2022-12-23T11:38:52.314Z,6.47
2022-12-23T11:41:26.297Z,6.50
2022-12-23T11:44:01.554Z,6.53
2022-12-23T11:46:32.687Z,6.63
2022-12-23T11:49:21.259Z,6.46
2022-12-23T11:52:08.777Z,6.46
2022-12-23T11:54:36.977Z,6.37
2022-12-23T11:57:08.451Z,6.50
2022-12-23T11:59:42.259Z,6.63
2022-12-23T12:02:20.975Z,6.77
2022-12-23T12:05:04.999Z,6.90
2022-12-23T12:07:33.365Z,6.96
2022-12-23T12:10:02.402Z,6.99
2022-12-23T12:12:30.437Z,6.80
2022-12-23T12:15:00.035Z,6.95
2022-12-23T12:17:47.032Z,7.39
2022-12-23T12:20:27.301Z,7.53
2022-12-23T12:22:59.138Z,7.75
2022-12-23T12:25:40.002Z,8.04
2022-12-23T12:28:15.056Z,8.14
2022-12-23T12:30:49.279Z,8.25
2022-12-23T12:33:27.673Z,8.06
2022-12-23T12:36:05.989Z,8.53
2022-12-23T12:38:38.039Z,8.53
2022-12-23T12:41:35.181Z,8.63
2022-12-23T12:44:41.677Z,8.50
2022-12-23T12:50:28.004Z,8.23
2022-12-23T12:53:00.437Z,8.16
2022-12-23T12:55:34.938Z,8.18
2022-12-23T12:58:05.028Z,8.24
2022-12-23T13:00:46.758Z,8.44
2022-12-23T13:03:43.692Z,8.55
2022-12-23T13:06:30.562Z,8.70
2022-12-23T13:09:19.732Z,8.82
2022-12-23T13:11:56.598Z,8.88
2022-12-23T13:14:45.791Z,9.03
2022-12-23T13:17:24.830Z,9.06
2022-12-23T13:20:20.803Z,9.41
2022-12-23T13:22:55.107Z,9.50
2022-12-23T13:25:33.038Z,9.57
2022-12-23T13:28:18.665Z,9.65
2022-12-23T13:30:58.517Z,9.59
2022-12-23T13:33:30.015Z,9.69
2022-12-23T13:36:06.782Z,9.68
2022-12-23T13:38:46.432Z,9.82
2022-12-23T13:41:49.510Z,9.68
2022-12-23T13:44:18.715Z,9.64
2022-12-23T13:46:57.759Z,9.73
2022-12-23T13:49:37.521Z,9.64
2022-12-23T13:52:04.688Z,9.84
2022-12-23T13:55:09.177Z,9.74
2022-12-23T13:58:04.411Z,9.70
2022-12-23T14:00:33.855Z,9.50
2022-12-23T14:03:01.127Z,9.57
2022-12-23T14:05:28.411Z,9.64
2022-12-23T14:07:57.747Z,9.46
2022-12-23T14:10:25.587Z,9.44
2022-12-23T14:13:00.698Z,9.35
2022-12-23T14:15:54.286Z,8.98
2022-12-23T14:18:33.418Z,9.06
2022-12-23T14:21:55.094Z,9.01
2022-12-23T14:24:22.267Z,9.07
2022-12-23T14:27:29.207Z,9.09
2022-12-23T14:30:09.350Z,9.01
2022-12-23T14:32:47.101Z,8.75
2022-12-23T14:35:19.039Z,8.86
2022-12-23T14:38:05.091Z,8.81
2022-12-23T14:40:38.436Z,8.76
2022-12-23T14:43:27.845Z,8.67
2022-12-23T14:46:07.162Z,8.35
2022-12-23T14:48:34.556Z,8.45
2022-12-23T14:51:11.023Z,8.33
2022-12-23T14:53:58.471Z,8.39
2022-12-23T14:56:40.745Z,8.31
2022-12-23T14:59:14.184Z,8.16
2022-12-23T15:01:49.462Z,8.07
2022-12-23T15:04:21.809Z,7.60
2022-12-23T15:07:07.267Z,7.79
2022-12-23T15:10:01.278Z,7.80
2022-12-23T15:12:51.479Z,7.72
2022-12-23T15:15:19.885Z,7.65
2022-12-23T15:17:47.831Z,7.64
2022-12-23T15:20:24.695Z,7.58
2022-12-23T15:22:52.733Z,7.49
2022-12-23T15:25:24.699Z,7.46
2022-12-23T15:27:59.329Z,7.32
2022-12-23T15:30:35.756Z,6.87
2022-12-23T15:33:21.814Z,7.03
2022-12-23T15:35:54.737Z,6.76
2022-12-23T15:38:26.615Z,6.90
2022-12-23T15:40:59.536Z,6.98
2022-12-23T15:43:27.167Z,6.64
2022-12-23T15:45:54.664Z,6.79
2022-12-23T15:48:31.460Z,6.79
2022-12-23T15:51:14.167Z,6.68
2022-12-23T15:53:44.057Z,6.77
2022-12-23T15:56:19.615Z,6.94
2022-12-23T15:58:47.481Z,6.89
2022-12-23T16:01:16.964Z,6.86
2022-12-23T16:03:57.377Z,6.77
2022-12-23T16:06:36.119Z,6.59
2022-12-23T16:09:09.382Z,6.55
2022-12-23T16:11:58.747Z,6.37
2022-12-23T16:14:42.248Z,6.41
2022-12-23T16:17:09.538Z,6.36
2022-12-23T16:19:45.496Z,6.33
2022-12-23T16:22:34.130Z,6.30
2022-12-23T16:25:04.621Z,6.33
2022-12-23T16:27:39.799Z,6.06
2022-12-23T16:30:34.820Z,6.25
2022-12-23T16:33:04.779Z,6.05
2022-12-23T16:35:31.919Z,6.13
2022-12-23T16:38:24.759Z,6.07
2022-12-23T16:40:54.573Z,6.08
2022-12-23T16:43:23.895Z,6.19
2022-12-23T16:45:54.309Z,6.08
2022-12-23T16:48:42.378Z,6.30
2022-12-23T16:51:14.786Z,6.35
2022-12-23T16:53:42.201Z,6.46
2022-12-23T16:56:15.072Z,6.38
2022-12-23T16:58:43.089Z,6.69
2022-12-23T17:01:44.415Z,6.61
2022-12-23T17:04:12.250Z,6.40
2022-12-23T17:06:40.779Z,6.53
2022-12-23T17:09:10.704Z,6.49
2022-12-23T17:11:45.799Z,6.54
2022-12-23T17:14:22.602Z,6.42
2022-12-23T17:16:51.057Z,6.37
2022-12-23T17:19:27.312Z,6.31
2022-12-23T17:22:01.190Z,6.18
2022-12-23T17:24:28.505Z,6.38
2022-12-23T17:26:56.987Z,6.45
2022-12-23T17:29:24.636Z,6.35
2022-12-23T17:31:52.597Z,6.17
2022-12-23T17:34:22.391Z,6.16
2022-12-23T17:36:51.122Z,5.75
2022-12-23T17:39:19.479Z,5.66
2022-12-23T17:41:47.291Z,5.88
2022-12-23T17:44:16.230Z,5.77
2022-12-23T17:46:45.586Z,5.46
2022-12-23T17:49:13.101Z,5.32
2022-12-23T17:51:41.735Z,5.40
2022-12-23T17:54:21.897Z,5.24
2022-12-23T17:56:49.365Z,5.45
2022-12-23T17:59:16.606Z,5.47
2022-12-23T18:01:44.006Z,5.49
2022-12-23T18:04:11.287Z,5.34
2022-12-23T18:06:38.556Z,5.21
2022-12-23T18:09:05.870Z,5.33
2022-12-23T18:11:45.093Z,5.34
2022-12-23T18:14:17.494Z,5.44
2022-12-23T18:16:44.877Z,5.31
2022-12-23T18:19:17.899Z,5.16
2022-12-23T18:21:45.636Z,5.08
2022-12-23T18:24:13.186Z,5.30
2022-12-23T18:26:40.446Z,4.76
2022-12-23T18:29:07.723Z,4.97
2022-12-23T18:31:36.053Z,4.96
2022-12-23T18:34:03.938Z,5.22
2022-12-23T18:36:33.923Z,5.16
2022-12-23T18:39:01.267Z,5.25
2022-12-23T18:41:28.560Z,5.36
2022-12-23T18:43:55.823Z,5.54
2022-12-23T18:46:23.142Z,5.36
2022-12-23T18:48:51.605Z,5.63
2022-12-23T18:51:21.363Z,5.71
2022-12-23T18:53:48.925Z,5.65
2022-12-23T18:56:21.110Z,5.71
2022-12-23T18:58:48.613Z,5.86
2022-12-23T19:01:17.322Z,5.89
2022-12-23T19:03:45.151Z,5.94
2022-12-23T19:06:14.688Z,5.96
2022-12-23T19:08:42.714Z,5.65
2022-12-23T19:11:16.152Z,5.74
2022-12-23T19:13:43.767Z,5.49
2022-12-23T19:16:17.432Z,5.39
2022-12-23T19:18:45.982Z,5.31
2022-12-23T19:21:14.138Z,5.43
2022-12-23T19:23:42.010Z,4.55
2022-12-23T19:26:10.785Z,5.03
2022-12-23T19:28:39.062Z,5.00
2022-12-23T19:31:14.097Z,4.94
2022-12-23T19:33:45.366Z,5.15
2022-12-23T19:36:17.941Z,5.40
2022-12-23T19:38:45.858Z,5.47
2022-12-23T19:41:13.129Z,5.26
2022-12-23T19:43:44.200Z,5.46
2022-12-23T19:46:13.199Z,5.38
2022-12-23T19:48:40.630Z,5.52
2022-12-23T19:51:13.396Z,5.34
2022-12-23T19:53:42.093Z,5.46
2022-12-23T19:56:15.163Z,5.40
2022-12-23T19:58:44.100Z,5.64
2022-12-23T20:01:15.792Z,5.62
2022-12-23T20:03:45.170Z,5.45
2022-12-23T20:06:21.795Z,5.49
2022-12-23T20:08:52.621Z,5.39
2022-12-23T20:11:26.254Z,5.32
2022-12-23T20:13:54.223Z,5.22
2022-12-23T20:16:22.988Z,5.41
2022-12-23T20:18:50.381Z,5.54
2022-12-23T20:21:18.072Z,5.88
2022-12-23T20:23:45.764Z,5.80
2022-12-23T20:26:14.459Z,5.70
2022-12-23T20:28:42.354Z,5.87
2022-12-23T20:31:19.278Z,5.42
2022-12-23T20:33:47.732Z,5.70
2022-12-23T20:36:17.257Z,5.82
2022-12-23T20:38:45.711Z,5.89
2022-12-23T20:41:17.432Z,6.02
2022-12-23T20:43:56.874Z,5.61
2022-12-23T20:46:30.487Z,5.98
2022-12-23T20:48:57.805Z,5.91
2022-12-23T20:51:25.791Z,5.82
2022-12-23T20:53:55.196Z,5.90
2022-12-23T20:56:27.510Z,6.36
2022-12-23T20:58:55.843Z,6.20
2022-12-23T21:01:32.391Z,6.22
2022-12-23T21:04:02.559Z,6.13
2022-12-23T21:06:30.945Z,6.20
2022-12-23T21:09:00.276Z,6.46
2022-12-23T21:11:29.763Z,6.39
2022-12-23T21:14:02.590Z,6.06
2022-12-23T21:16:34.199Z,6.23
2022-12-23T21:19:01.598Z,6.24
2022-12-23T21:21:31.133Z,5.94
2022-12-23T21:24:01.289Z,6.10
2022-12-23T21:26:30.065Z,5.91
2022-12-23T21:29:00.031Z,6.26
2022-12-23T21:31:28.177Z,6.42
2022-12-23T21:33:55.883Z,6.44
2022-12-23T21:36:25.934Z,6.68
2022-12-23T21:38:53.830Z,6.82
2022-12-23T21:41:27.660Z,6.95
2022-12-23T21:43:56.846Z,7.05
2022-12-23T21:46:25.129Z,6.86
2022-12-23T21:48:53.116Z,7.03
2022-12-23T21:51:22.970Z,7.06
2022-12-23T21:53:51.499Z,7.01
2022-12-23T21:56:21.713Z,6.93
2022-12-23T21:58:48.960Z,6.79
2022-12-23T22:01:20.649Z,6.76
2022-12-23T22:03:49.455Z,6.73
2022-12-23T22:06:28.619Z,6.69
2022-12-23T22:08:56.534Z,6.79
2022-12-23T22:11:29.451Z,6.95
2022-12-23T22:13:58.801Z,7.02
2022-12-23T22:16:27.871Z,7.02
2022-12-23T22:18:56.672Z,6.92
2022-12-23T22:21:27.286Z,7.10
2022-12-23T22:23:55.474Z,7.03
2022-12-23T22:26:26.316Z,6.93
2022-12-23T22:29:00.306Z,7.20
2022-12-23T22:31:36.595Z,7.28
2022-12-23T22:34:04.865Z,7.28
2022-12-23T22:36:32.361Z,7.28
2022-12-23T22:39:01.714Z,7.23
2022-12-23T22:41:30.371Z,7.22
2022-12-23T22:43:58.775Z,7.11
2022-12-23T22:46:26.759Z,7.19
2022-12-23T22:48:54.355Z,7.16
2022-12-23T22:51:24.620Z,7.13
2022-12-23T22:53:52.095Z,7.03
2022-12-23T22:56:21.011Z,6.70
2022-12-23T22:58:48.708Z,7.34
2022-12-23T23:01:30.964Z,7.19
2022-12-23T23:04:00.667Z,7.24
2022-12-23T23:06:34.210Z,7.23
2022-12-23T23:09:01.764Z,7.20
2022-12-23T23:11:29.529Z,6.96
2022-12-23T23:13:57.518Z,7.13
2022-12-23T23:16:25.474Z,7.13
2022-12-23T23:18:54.027Z,7.31
2022-12-23T23:21:22.182Z,7.30
2022-12-23T23:23:49.969Z,7.33
2022-12-23T23:26:19.021Z,7.20
2022-12-23T23:28:46.932Z,7.25
2022-12-23T23:31:41.337Z,7.27
2022-12-23T23:34:01.698Z,7.24
2022-12-23T23:36:29.037Z,7.37
2022-12-23T23:38:56.339Z,7.33
2022-12-23T23:41:24.358Z,7.21
2022-12-23T23:43:52.131Z,7.47
2022-12-23T23:46:19.595Z,7.42
2022-12-23T23:48:47.033Z,7.36
2022-12-23T23:51:14.563Z,7.34
2022-12-23T23:53:41.832Z,7.35
2022-12-23T23:56:09.866Z,7.29
2022-12-23T23:58:37.748Z,7.33
